Time;durP1;ratioP1;P1;durP2;ratioP2;P2;SDS_P1;SDS_P2;PMS_P1;PMS_P2;Temp;Humidity;BMP_temperature;BMP_pressure;BME280_temperature;BME280_humidity;BME280_pressure;Samples;Min_cycle;Max_cycle;Signal;HPM_P1;HPM_P2
2021/04/18 00:00:31;;;;;;;5.10;3.60;;;8.80;50.10;;;;;;4993006;28;20737;-87
2021/04/18 00:02:57;;;;;;;3.93;3.03;;;8.90;50.10;;;;;;5004167;28;20186;-87
2021/04/18 00:05:25;;;;;;;4.37;2.70;;;8.80;50.00;;;;;;4994377;28;20260;-86
2021/04/18 00:07:54;;;;;;;3.20;2.63;;;8.80;50.30;;;;;;4998228;28;20242;-87
2021/04/18 00:10:21;;;;;;;5.00;3.57;;;8.80;49.90;;;;;;5012250;28;20287;-87
2021/04/18 00:12:47;;;;;;;7.07;3.40;;;8.70;50.00;;;;;;4992434;28;20289;-86
2021/04/18 00:15:15;;;;;;;4.50;3.17;;;8.70;50.60;;;;;;4997954;28;20564;-87
2021/04/18 00:17:41;;;;;;;5.30;2.47;;;8.60;51.00;;;;;;4998603;28;20226;-87
2021/04/18 00:20:12;;;;;;;3.73;2.70;;;8.60;51.20;;;;;;4991103;28;20196;-87
2021/04/18 00:22:39;;;;;;;7.27;2.80;;;8.60;51.00;;;;;;4998694;28;20306;-87
2021/04/18 00:25:06;;;;;;;5.63;3.10;;;8.60;51.50;;;;;;4999378;28;20205;-86
2021/04/18 00:27:32;;;;;;;5.03;2.47;;;;;;;;;;4999968;28;20254;-86
2021/04/18 00:29:58;;;;;;;3.30;2.43;;;8.50;51.10;;;;;;5006298;28;20192;-86
2021/04/18 00:32:24;;;;;;;6.63;3.60;;;8.60;50.80;;;;;;4995565;28;20194;-86
2021/04/18 00:34:49;;;;;;;3.93;2.70;;;8.60;51.40;;;;;;4991211;28;20574;-86
2021/04/18 00:37:15;;;;;;;6.00;3.57;;;8.60;51.40;;;;;;5011653;28;20232;-86
2021/04/18 00:39:41;;;;;;;5.93;4.10;;;8.60;51.50;;;;;;4998956;28;20258;-86
2021/04/18 00:42:06;;;;;;;3.87;3.17;;;8.60;51.80;;;;;;4991970;28;20224;-87
2021/04/18 00:44:32;;;;;;;7.43;3.63;;;8.70;50.80;;;;;;4998603;28;20322;-86
2021/04/18 00:46:58;;;;;;;10.43;4.33;;;8.60;51.30;;;;;;4999196;28;20224;-86
2021/04/18 00:49:24;;;;;;;6.10;3.73;;;8.60;51.80;;;;;;4996870;28;20199;-86
2021/04/18 00:51:49;;;;;;;4.30;3.30;;;8.60;52.30;;;;;;4997941;28;20228;-86
2021/04/18 00:54:15;;;;;;;5.43;2.77;;;8.50;52.40;;;;;;5014689;28;20195;-87
2021/04/18 00:56:40;;;;;;;6.93;2.93;;;8.40;52.50;;;;;;5014044;28;20633;-86
2021/04/18 00:59:06;;;;;;;4.37;3.07;;;8.40;52.90;;;;;;5001070;28;20220;-87
2021/04/18 01:01:31;;;;;;;3.87;3.17;;;8.40;53.20;;;;;;4999643;28;20193;-86
2021/04/18 01:03:57;;;;;;;4.17;3.10;;;8.40;53.80;;;;;;5002027;28;20599;-86
2021/04/18 01:06:23;;;;;;;5.63;3.00;;;8.30;54.40;;;;;;4997235;28;20207;-86
2021/04/18 01:08:48;;;;;;;5.03;3.07;;;8.30;54.40;;;;;;5006732;28;20192;-86
2021/04/18 01:11:14;;;;;;;3.77;3.07;;;8.30;54.40;;;;;;4993442;28;20578;-86
2021/04/18 01:13:40;;;;;;;4.33;2.60;;;8.30;53.40;;;;;;4988028;28;20283;-86
2021/04/18 01:16:06;;;;;;;4.17;3.03;;;8.30;53.70;;;;;;5001499;28;20251;-86
2021/04/18 01:18:31;;;;;;;7.90;3.63;;;8.30;54.00;;;;;;4995138;28;20596;-86
2021/04/18 01:21:07;;;;;;;5.20;2.87;;;8.30;54.20;;;;;;4998492;28;20579;-86
2021/04/18 01:23:33;;;;;;;3.30;2.80;;;8.30;54.20;;;;;;5018623;28;20188;-86
2021/04/18 01:25:59;;;;;;;4.67;2.90;;;8.30;54.20;;;;;;5006965;28;20220;-86
2021/04/18 01:28:25;;;;;;;5.30;3.10;;;8.30;54.40;;;;;;5007880;28;20334;-86
2021/04/18 01:30:50;;;;;;;3.77;3.13;;;8.30;54.40;;;;;;5001934;28;20211;-87
2021/04/18 01:33:19;;;;;;;3.17;2.87;;;8.20;54.10;;;;;;4999830;28;20219;-86
2021/04/18 01:35:47;;;;;;;4.47;3.20;;;8.50;54.60;;;;;;4996015;28;20208;-86
2021/04/18 01:38:15;;;;;;;5.77;3.43;;;8.20;53.80;;;;;;5000147;28;20176;-86
2021/04/18 01:40:42;;;;;;;5.00;3.63;;;8.20;54.40;;;;;;5008890;28;20261;-86
2021/04/18 01:43:15;;;;;;;3.40;3.07;;;8.30;54.40;;;;;;5004332;28;20278;-86
2021/04/18 01:45:41;;;;;;;3.90;3.50;;;8.20;54.40;;;;;;5004062;28;20192;-86
2021/04/18 01:48:08;;;;;;;3.43;3.07;;;8.20;54.30;;;;;;5001315;28;20212;-86
2021/04/18 01:50:40;;;;;;;4.23;3.37;;;8.20;54.40;;;;;;5002252;28;20223;-86
2021/04/18 01:53:06;;;;;;;3.33;2.80;;;8.30;54.40;;;;;;4992912;28;20224;-86
2021/04/18 01:55:31;;;;;;;5.40;3.13;;;8.30;54.40;;;;;;4997900;28;20238;-86
2021/04/18 01:57:57;;;;;;;4.80;2.97;;;8.30;54.40;;;;;;4997863;28;20539;-86
2021/04/18 02:00:22;;;;;;;3.57;2.93;;;8.30;54.40;;;;;;4999948;28;20227;-86
2021/04/18 02:02:48;;;;;;;4.63;3.00;;;8.30;54.40;;;;;;5001722;28;20195;-86
2021/04/18 02:05:14;;;;;;;4.07;2.83;;;8.30;54.40;;;;;;5002903;28;20184;-86
2021/04/18 02:07:41;;;;;;;2.80;2.60;;;8.20;54.40;;;;;;4999834;28;20270;-86
2021/04/18 02:10:08;;;;;;;4.07;3.13;;;8.10;55.30;;;;;;5007351;28;20220;-86
2021/04/18 02:12:34;;;;;;;5.30;3.00;;;8.10;55.30;;;;;;5008141;28;20212;-86
2021/04/18 02:15:00;;;;;;;3.73;3.43;;;7.90;55.90;;;;;;4999044;28;20609;-85
2021/04/18 02:17:26;;;;;;;5.90;3.27;;;8.00;57.00;;;;;;5006146;28;20212;-86
2021/04/18 02:19:52;;;;;;;4.03;3.27;;;;;;;;;;5002862;28;20192;-86
2021/04/18 02:22:18;;;;;;;5.73;3.07;;;8.10;55.00;;;;;;5006584;28;21011;-86
2021/04/18 02:24:43;;;;;;;4.57;2.87;;;8.20;55.30;;;;;;5005411;28;20228;-87
2021/04/18 02:27:09;;;;;;;4.43;3.20;;;8.20;55.30;;;;;;5006533;28;20216;-86
2021/04/18 02:29:35;;;;;;;3.50;2.83;;;8.30;55.50;;;;;;5017241;28;20207;-86
2021/04/18 02:32:00;;;;;;;4.30;2.67;;;8.20;55.60;;;;;;4992485;28;20238;-86
2021/04/18 02:34:26;;;;;;;5.30;2.80;;;8.20;55.20;;;;;;4999164;28;20227;-86
2021/04/18 02:36:52;;;;;;;6.80;3.57;;;8.20;55.80;;;;;;4995768;28;20239;-86
2021/04/18 02:39:17;;;;;;;3.63;3.17;;;8.20;56.10;;;;;;5001811;28;20197;-86
2021/04/18 02:41:43;;;;;;;4.93;3.20;;;8.30;56.40;;;;;;5004044;28;20283;-86
2021/04/18 02:44:09;;;;;;;4.87;3.17;;;8.10;56.60;;;;;;5009146;28;20208;-86
2021/04/18 02:46:34;;;;;;;5.73;3.30;;;8.10;57.20;;;;;;4999577;28;20221;-87
2021/04/18 02:49:02;;;;;;;4.60;2.87;;;8.10;57.30;;;;;;4996407;28;20235;-86
2021/04/18 02:51:29;;;;;;;4.67;2.63;;;8.10;57.10;;;;;;4999622;28;20232;-86
2021/04/18 02:53:58;;;;;;;6.60;3.63;;;8.10;56.80;;;;;;5009115;28;20193;-86
2021/04/18 02:56:24;;;;;;;7.27;3.40;;;8.10;57.20;;;;;;4999844;28;20593;-86
2021/04/18 02:58:49;;;;;;;6.70;3.40;;;8.00;57.30;;;;;;5017982;28;20227;-85
2021/04/18 03:01:15;;;;;;;4.17;3.57;;;8.10;56.50;;;;;;5010553;28;20223;-86
2021/04/18 03:03:41;;;;;;;4.47;3.17;;;8.10;56.20;;;;;;4987490;28;20211;-86
2021/04/18 03:06:06;;;;;;;7.77;3.23;;;8.10;55.80;;;;;;5001387;28;20217;-86
2021/04/18 03:08:32;;;;;;;4.20;2.97;;;8.10;56.20;;;;;;4998129;28;20222;-86
2021/04/18 03:10:58;;;;;;;4.10;3.00;;;8.10;56.00;;;;;;5004411;28;20196;-86
2021/04/18 03:13:24;;;;;;;3.60;3.10;;;;;;;;;;4997464;28;20217;-85
2021/04/18 03:15:49;;;;;;;4.50;3.03;;;8.20;54.90;;;;;;5002105;28;20279;-86
2021/04/18 03:18:16;;;;;;;3.80;3.07;;;8.20;55.90;;;;;;4999824;28;20253;-87
2021/04/18 03:20:42;;;;;;;4.07;3.40;;;8.20;55.90;;;;;;4997399;28;20226;-86
2021/04/18 03:23:07;;;;;;;5.17;3.13;;;8.10;56.20;;;;;;4996375;28;20197;-86
2021/04/18 03:25:33;;;;;;;3.23;2.93;;;8.10;56.30;;;;;;4997329;28;20223;-85
2021/04/18 03:27:59;;;;;;;6.13;3.50;;;8.10;56.60;;;;;;4994707;28;20226;-86
2021/04/18 03:30:24;;;;;;;4.77;2.93;;;8.10;57.60;;;;;;4997148;28;20236;-87
2021/04/18 03:32:50;;;;;;;3.53;3.23;;;8.10;57.80;;;;;;4993362;28;20209;-84
2021/04/18 03:35:16;;;;;;;4.47;3.47;;;8.10;57.60;;;;;;4998632;28;20195;-83
2021/04/18 03:37:42;;;;;;;3.93;3.07;;;8.10;58.50;;;;;;5003436;28;20271;-83
2021/04/18 03:40:08;;;;;;;5.13;3.03;;;8.10;58.60;;;;;;4999600;28;20288;-83
2021/04/18 03:42:34;;;;;;;5.90;3.50;;;8.10;58.90;;;;;;5002456;28;20195;-83
2021/04/18 03:44:59;;;;;;;4.33;3.30;;;8.10;59.10;;;;;;5000783;28;20192;-83
2021/04/18 03:47:25;;;;;;;3.40;3.00;;;8.10;59.10;;;;;;4996997;28;20196;-83
2021/04/18 03:49:50;;;;;;;3.93;2.97;;;8.10;59.10;;;;;;5001162;28;20587;-84
2021/04/18 03:52:16;;;;;;;5.37;3.40;;;8.10;58.90;;;;;;4997885;28;20346;-83
2021/04/18 03:54:42;;;;;;;5.90;3.53;;;8.00;58.40;;;;;;4998518;28;23869;-83
2021/04/18 03:57:08;;;;;;;3.77;2.83;;;8.00;58.20;;;;;;5019230;28;20701;-83
2021/04/18 03:59:33;;;;;;;4.87;3.17;;;8.10;57.70;;;;;;5002206;28;20184;-82
2021/04/18 04:01:59;;;;;;;5.23;3.30;;;8.20;57.90;;;;;;4998302;28;20313;-83
2021/04/18 04:04:25;;;;;;;7.30;3.93;;;8.10;58.00;;;;;;5003454;28;20206;-83
2021/04/18 04:06:51;;;;;;;4.97;3.50;;;8.10;57.70;;;;;;5001929;28;20300;-83
2021/04/18 04:09:17;;;;;;;5.00;3.60;;;8.20;58.00;;;;;;5001513;28;20193;-83
2021/04/18 04:11:43;;;;;;;6.50;3.60;;;;;;;;;;5017573;28;20221;-83
2021/04/18 04:14:08;;;;;;;4.17;3.10;;;8.20;58.10;;;;;;4998616;28;20189;-83
2021/04/18 04:16:34;;;;;;;4.67;3.10;;;8.20;59.40;;;;;;5000331;28;20212;-83
2021/04/18 04:19:00;;;;;;;5.17;3.30;;;8.20;60.60;;;;;;4997940;28;20220;-83
2021/04/18 04:21:25;;;;;;;5.33;3.57;;;8.20;61.50;;;;;;4995366;28;20189;-82
2021/04/18 04:23:51;;;;;;;4.10;3.27;;;8.10;61.90;;;;;;4997430;28;20209;-83
2021/04/18 04:26:17;;;;;;;5.30;3.80;;;8.20;62.90;;;;;;5002309;28;20194;-83
2021/04/18 04:28:42;;;;;;;5.73;3.90;;;8.20;62.90;;;;;;5003715;28;20221;-83
2021/04/18 04:31:08;;;;;;;5.40;3.43;;;8.10;62.80;;;;;;5002810;28;20191;-83
2021/04/18 04:33:35;;;;;;;5.03;3.93;;;8.10;62.80;;;;;;4995750;28;20233;-83
2021/04/18 04:36:00;;;;;;;6.57;3.83;;;8.10;65.30;;;;;;5012857;28;20213;-83
2021/04/18 04:38:26;;;;;;;5.53;3.63;;;8.10;65.90;;;;;;4998937;28;20204;-83
2021/04/18 04:40:52;;;;;;;4.97;3.60;;;8.10;68.20;;;;;;5001840;28;20604;-83
2021/04/18 04:43:17;;;;;;;4.57;3.33;;;8.10;70.40;;;;;;4999613;28;20221;-83
2021/04/18 04:45:43;;;;;;;5.37;3.87;;;8.00;71.80;;;;;;4994361;28;20224;-83
2021/04/18 04:48:08;;;;;;;5.47;4.07;;;8.00;72.50;;;;;;5010886;28;20220;-83
2021/04/18 04:50:34;;;;;;;5.70;3.70;;;8.00;72.40;;;;;;5019311;28;20191;-83
2021/04/18 04:53:00;;;;;;;4.90;3.77;;;7.90;72.70;;;;;;5001674;28;20191;-83
2021/04/18 04:55:25;;;;;;;6.07;3.73;;;8.00;74.30;;;;;;5003247;28;20211;-82
2021/04/18 04:57:51;;;;;;;5.47;4.07;;;8.10;75.90;;;;;;5007601;28;20238;-83
2021/04/18 05:00:17;;;;;;;5.80;4.07;;;7.90;76.60;;;;;;5022347;28;20228;-83
2021/04/18 05:02:43;;;;;;;4.30;3.57;;;7.90;77.10;;;;;;5000517;28;20227;-83
2021/04/18 05:05:09;;;;;;;4.50;3.70;;;7.80;77.70;;;;;;5018058;28;20183;-83
2021/04/18 05:07:35;;;;;;;6.10;3.80;;;7.90;77.70;;;;;;5011097;28;20214;-83
2021/04/18 05:10:00;;;;;;;5.20;3.60;;;7.90;76.80;;;;;;5023052;28;20219;-82
2021/04/18 05:12:26;;;;;;;5.73;3.83;;;7.90;77.40;;;;;;5001804;28;20291;-83
2021/04/18 05:14:52;;;;;;;4.73;3.90;;;7.90;77.80;;;;;;5001644;28;20221;-83
2021/04/18 05:17:17;;;;;;;4.63;3.90;;;7.80;77.60;;;;;;4998999;28;20320;-83
2021/04/18 05:19:43;;;;;;;8.47;4.17;;;7.80;79.60;;;;;;4996662;28;20218;-82
2021/04/18 05:22:08;;;;;;;6.83;4.23;;;7.90;78.80;;;;;;5002889;28;20282;-83
2021/04/18 05:24:34;;;;;;;6.80;4.00;;;7.90;78.40;;;;;;5003667;28;20202;-83
2021/04/18 05:27:00;;;;;;;10.70;5.10;;;7.90;78.80;;;;;;5004832;28;20203;-82
2021/04/18 05:29:26;;;;;;;4.57;3.90;;;7.80;77.70;;;;;;5000419;28;20192;-83
2021/04/18 05:31:51;;;;;;;6.27;4.00;;;7.70;78.40;;;;;;5001808;28;20232;-82
2021/04/18 05:34:17;;;;;;;5.00;4.03;;;7.70;79.40;;;;;;5005354;28;20219;-82
2021/04/18 05:36:43;;;;;;;4.87;3.50;;;7.70;80.50;;;;;;5004877;28;20284;-83
2021/04/18 05:39:09;;;;;;;6.73;4.30;;;7.70;81.30;;;;;;5000485;28;20199;-83
2021/04/18 05:41:36;;;;;;;4.57;3.93;;;7.70;81.00;;;;;;5001580;28;20191;-83
2021/04/18 05:44:03;;;;;;;4.80;4.23;;;7.70;81.60;;;;;;5012853;28;20283;-83
2021/04/18 05:46:28;;;;;;;6.47;4.30;;;7.80;83.20;;;;;;5002173;28;20247;-83
2021/04/18 05:48:54;;;;;;;6.93;4.07;;;7.70;83.20;;;;;;4999707;28;20203;-83
2021/04/18 05:51:19;;;;;;;6.07;4.37;;;7.70;84.90;;;;;;5000348;28;20190;-83
2021/04/18 05:53:46;;;;;;;6.40;4.10;;;7.70;85.50;;;;;;4996113;28;20619;-83
2021/04/18 05:56:11;;;;;;;4.87;4.27;;;7.70;86.50;;;;;;5024213;28;20693;-83
2021/04/18 05:58:37;;;;;;;5.80;4.10;;;7.70;86.10;;;;;;5000768;28;20227;-83
2021/04/18 06:01:03;;;;;;;7.23;4.50;;;7.60;87.40;;;;;;5014254;28;20220;-82
2021/04/18 06:03:28;;;;;;;6.03;4.10;;;7.70;87.60;;;;;;5001309;28;20639;-83
2021/04/18 06:05:54;;;;;;;7.03;4.70;;;7.80;89.60;;;;;;4999684;28;20240;-83
2021/04/18 06:08:20;;;;;;;6.97;4.17;;;7.80;90.10;;;;;;5000703;28;20223;-82
2021/04/18 06:10:45;;;;;;;5.10;4.27;;;7.80;90.40;;;;;;5003244;28;20220;-83
2021/04/18 06:13:11;;;;;;;7.37;4.97;;;7.90;90.00;;;;;;4996175;28;20234;-84
2021/04/18 06:15:37;;;;;;;5.47;4.33;;;7.90;90.20;;;;;;4996316;28;20247;-83
2021/04/18 06:18:02;;;;;;;5.63;4.83;;;7.90;87.90;;;;;;5016307;28;20214;-83
2021/04/18 06:20:28;;;;;;;6.70;4.30;;;8.00;86.60;;;;;;5003233;28;20660;-83
2021/04/18 06:22:53;;;;;;;8.80;4.90;;;8.20;83.20;;;;;;5000373;28;20275;-83
2021/04/18 06:25:19;;;;;;;6.57;4.60;;;8.20;80.20;;;;;;5001387;28;20221;-83
2021/04/18 06:27:46;;;;;;;6.37;3.70;;;8.20;81.50;;;;;;4998042;28;20282;-83
2021/04/18 06:30:13;;;;;;;6.30;4.43;;;8.30;84.00;;;;;;5000449;28;20258;-82
2021/04/18 06:32:39;;;;;;;5.23;4.10;;;8.40;81.30;;;;;;5000864;28;20199;-82
2021/04/18 06:35:07;;;;;;;5.30;4.00;;;8.20;79.80;;;;;;4996833;28;21115;-86
2021/04/18 06:37:33;;;;;;;5.33;4.40;;;8.10;79.80;;;;;;5011471;28;20232;-85
2021/04/18 06:39:59;;;;;;;7.33;4.23;;;8.10;81.50;;;;;;4993866;28;20219;-87
2021/04/18 06:42:26;;;;;;;7.37;4.77;;;8.10;82.00;;;;;;5001398;28;20663;-86
2021/04/18 06:44:52;;;;;;;5.47;4.03;;;8.10;81.90;;;;;;4996480;28;20223;-86
2021/04/18 06:47:17;;;;;;;6.13;4.50;;;8.10;83.30;;;;;;5001672;28;20191;-85
2021/04/18 06:49:43;;;;;;;7.93;5.47;;;8.00;84.20;;;;;;4996719;28;20197;-85
2021/04/18 06:52:12;;;;;;;6.87;4.73;;;8.00;85.10;;;;;;4999327;28;20270;-85
2021/04/18 06:54:37;;;;;;;7.47;4.97;;;8.10;85.50;;;;;;5001278;28;20223;-86
2021/04/18 06:57:04;;;;;;;6.10;4.40;;;;;;;;;;4999246;28;20231;-85
2021/04/18 06:59:29;;;;;;;10.90;5.77;;;8.00;86.90;;;;;;5005748;28;20224;-86
2021/04/18 07:01:55;;;;;;;7.63;5.07;;;8.00;86.00;;;;;;4996544;28;20219;-85
2021/04/18 07:04:22;;;;;;;7.13;5.00;;;8.00;87.00;;;;;;4996124;28;20211;-85
2021/04/18 07:06:49;;;;;;;9.00;5.00;;;8.10;85.80;;;;;;4993572;28;20223;-85
2021/04/18 07:09:19;;;;;;;8.33;5.23;;;8.10;86.00;;;;;;5011521;28;20196;-86
2021/04/18 07:11:50;;;;;;;6.43;5.53;;;7.90;87.20;;;;;;5002060;28;20230;-86
2021/04/18 07:14:28;;;;;;;8.47;5.50;;;7.90;87.70;;;;;;4996084;28;20275;-86
2021/04/18 07:17:10;;;;;;;8.77;5.73;;;7.90;88.40;;;;;;5007237;28;20242;-87
2021/04/18 07:19:38;;;;;;;8.20;5.80;;;7.90;90.30;;;;;;4998005;28;20283;-87
2021/04/18 07:22:05;;;;;;;7.60;5.23;;;8.10;90.10;;;;;;4993372;28;20682;-87
2021/04/18 07:24:31;;;;;;;7.67;5.23;;;8.10;90.70;;;;;;5001890;28;20223;-84
2021/04/18 07:27:02;;;;;;;7.10;4.67;;;8.10;89.20;;;;;;5017257;28;20552;-85
2021/04/18 07:29:31;;;;;;;9.30;4.63;;;8.10;88.80;;;;;;4998702;28;20195;-85
2021/04/18 07:31:59;;;;;;;7.60;4.97;;;7.90;90.10;;;;;;5002734;28;20216;-86
2021/04/18 07:34:26;;;;;;;7.63;5.30;;;7.90;89.40;;;;;;4999996;28;20196;-83
2021/04/18 07:37:18;;;;;;;6.53;5.43;;;7.90;89.90;;;;;;4994963;28;20235;-85
2021/04/18 07:39:53;;;;;;;9.30;5.47;;;7.90;90.90;;;;;;4993080;28;20227;-86
2021/04/18 07:42:35;;;;;;;5.50;4.47;;;7.90;91.20;;;;;;4988756;28;20188;-85
2021/04/18 07:45:08;;;;;;;8.97;5.37;;;7.90;91.60;;;;;;5016487;28;20313;-85
2021/04/18 07:48:27;;;;;;;6.67;4.77;;;7.90;91.50;;;;;;4999838;28;20187;-85
2021/04/18 07:50:54;;;;;;;8.30;4.27;;;8.00;87.90;;;;;;4957713;29;20198;-85
2021/04/18 07:53:21;;;;;;;7.07;4.23;;;8.30;87.30;;;;;;4939578;29;20775;-86
2021/04/18 07:55:46;;;;;;;6.37;4.53;;;8.40;87.50;;;;;;4937770;28;20221;-85
2021/04/18 07:58:13;;;;;;;9.07;5.47;;;8.30;87.90;;;;;;4947196;29;20526;-85
2021/04/18 08:00:39;;;;;;;9.67;5.77;;;8.20;87.90;;;;;;4952731;28;20250;-85
2021/04/18 08:03:05;;;;;;;7.07;5.00;;;8.30;90.00;;;;;;4957888;28;20848;-85
2021/04/18 08:05:34;;;;;;;9.03;5.43;;;8.40;90.30;;;;;;4939248;29;20245;-86
2021/04/18 08:08:05;;;;;;;7.43;5.60;;;8.50;88.50;;;;;;4940545;29;20199;-86
2021/04/18 08:10:39;;;;;;;8.97;5.83;;;8.60;87.50;;;;;;4940084;28;20312;-86
2021/04/18 08:13:09;;;;;;;9.37;6.30;;;8.70;85.50;;;;;;4937024;29;20742;-86
2021/04/18 08:16:04;;;;;;;9.37;4.80;;;8.80;84.50;;;;;;4939051;29;20271;-86
2021/04/18 08:18:47;;;;;;;8.83;4.87;;;8.90;82.90;;;;;;4934535;28;20602;-87
2021/04/18 08:21:33;;;;;;;7.90;5.37;;;8.90;83.20;;;;;;4952176;28;20349;-87
2021/04/18 08:24:00;;;;;;;8.83;5.70;;;8.70;82.10;;;;;;4940492;29;20262;-86
2021/04/18 08:26:28;;;;;;;8.50;5.50;;;8.70;82.70;;;;;;4956943;28;20293;-86
2021/04/18 08:29:03;;;;;;;6.77;5.10;;;9.10;84.10;;;;;;4996445;28;20182;-79
2021/04/18 08:31:52;;;;;;;8.70;5.63;;;9.10;84.60;;;;;;4996236;28;20679;-79
2021/04/18 08:34:37;;;;;;;10.57;6.00;;;9.10;84.60;;;;;;5018163;28;20188;-79
2021/04/18 08:37:11;;;;;;;9.20;5.20;;;9.20;84.80;;;;;;4997196;28;20240;-80
2021/04/18 08:40:03;;;;;;;11.47;5.57;;;9.20;85.50;;;;;;4996916;28;20240;-85
2021/04/18 08:42:29;;;;;;;7.23;5.33;;;9.00;82.40;;;;;;5001724;28;20249;-86
2021/04/18 08:44:56;;;;;;;9.93;5.20;;;9.10;82.90;;;;;;5009726;28;20205;-86
2021/04/18 08:47:26;;;;;;;8.70;5.80;;;9.10;82.80;;;;;;5014337;28;20237;-86
2021/04/18 08:50:16;;;;;;;7.77;5.37;;;9.10;83.50;;;;;;5019429;28;20843;-86
2021/04/18 08:52:42;;;;;;;6.33;4.90;;;9.10;83.90;;;;;;4996748;28;20212;-86
2021/04/18 08:55:11;;;;;;;10.57;5.97;;;9.10;84.80;;;;;;5021686;28;20253;-86
2021/04/18 08:57:37;;;;;;;7.37;5.60;;;9.10;85.50;;;;;;5007806;28;20223;-87
2021/04/18 09:00:12;;;;;;;9.43;5.13;;;9.40;86.30;;;;;;5004962;28;20193;-86
2021/04/18 09:02:38;;;;;;;7.70;5.57;;;9.50;85.00;;;;;;5005431;28;20279;-87
2021/04/18 09:05:08;;;;;;;7.03;4.80;;;9.50;83.70;;;;;;5020905;28;20184;-86
2021/04/18 09:07:36;;;;;;;8.70;4.97;;;9.60;85.30;;;;;;5004748;28;20200;-86
2021/04/18 09:10:08;;;;;;;7.97;5.63;;;9.60;83.30;;;;;;5000540;28;20231;-86
2021/04/18 09:12:34;;;;;;;7.00;5.23;;;9.60;82.40;;;;;;5003529;28;20248;-86
2021/04/18 09:15:00;;;;;;;9.30;5.77;;;9.60;82.70;;;;;;5001590;28;20275;-87
2021/04/18 09:17:34;;;;;;;7.57;5.67;;;9.60;84.60;;;;;;5011496;28;20694;-87
2021/04/18 09:20:00;;;;;;;11.30;6.10;;;9.70;86.50;;;;;;5002237;28;20232;-86
2021/04/18 09:22:34;;;;;;;9.47;5.93;;;9.50;85.10;;;;;;5000355;28;20215;-87
2021/04/18 09:25:24;;;;;;;10.77;6.47;;;9.50;85.60;;;;;;5002613;28;20218;-87
2021/04/18 09:27:52;;;;;;;10.03;5.83;;;9.40;84.90;;;;;;5017203;28;20239;-88
2021/04/18 09:30:21;;;;;;;7.50;4.70;;;9.40;86.10;;;;;;5007628;28;20237;-85
2021/04/18 09:32:50;;;;;;;9.33;6.13;;;9.40;87.20;;;;;;5001724;28;20186;-86
2021/04/18 09:35:17;;;;;;;8.40;6.17;;;9.50;89.10;;;;;;5010033;28;20178;-86
2021/04/18 09:37:54;;;;;;;7.73;5.00;;;9.90;88.90;;;;;;5001459;28;20238;-86
2021/04/18 09:40:25;;;;;;;8.43;6.13;;;10.30;83.80;;;;;;5000204;28;20234;-86
2021/04/18 09:42:52;;;;;;;9.20;6.13;;;;;;;;;;5004143;28;20528;-87
2021/04/18 09:45:25;;;;;;;8.57;5.63;;;10.40;80.60;;;;;;5022973;28;20627;-87
2021/04/18 09:48:13;;;;;;;9.33;6.03;;;10.20;79.20;;;;;;5005929;28;20203;-87
2021/04/18 09:50:39;;;;;;;10.73;6.00;;;;;;;;;;5003614;28;20191;-86
2021/04/18 09:53:18;;;;;;;7.83;5.57;;;10.10;81.80;;;;;;5001525;28;20216;-87
2021/04/18 09:56:04;;;;;;;9.03;5.67;;;9.90;81.40;;;;;;4996033;28;22238;-86
2021/04/18 09:58:30;;;;;;;8.63;5.80;;;;;;;;;;5012505;28;20197;-86
2021/04/18 10:00:56;;;;;;;9.47;5.90;;;9.50;85.00;;;;;;5017125;28;20763;-89
2021/04/18 10:03:22;;;;;;;8.80;6.63;;;;;;;;;;4983810;28;20215;-87
2021/04/18 10:05:48;;;;;;;11.67;7.60;;;;;;;;;;5010728;28;20252;-86
2021/04/18 10:08:24;;;;;;;8.37;5.33;;;9.40;90.50;;;;;;5009386;28;20189;-85
2021/04/18 10:11:16;;;;;;;9.47;5.87;;;9.20;90.70;;;;;;5005955;28;20615;-85
2021/04/18 10:13:58;;;;;;;9.93;6.27;;;9.20;91.10;;;;;;5019018;28;20248;-86
2021/04/18 10:16:34;;;;;;;8.67;6.13;;;9.30;90.80;;;;;;5014586;28;20259;-85
2021/04/18 10:19:15;;;;;;;7.93;5.63;;;9.30;91.60;;;;;;5000597;28;20279;-84
2021/04/18 10:21:44;;;;;;;9.63;6.27;;;9.70;89.60;;;;;;5002211;28;20224;-84
2021/04/18 10:24:38;;;;;;;9.43;6.47;;;9.90;88.90;;;;;;5001237;28;20199;-85
2021/04/18 10:27:07;;;;;;;9.20;5.87;;;9.80;86.30;;;;;;5001160;28;20199;-85
2021/04/18 10:29:34;;;;;;;9.73;6.50;;;9.80;87.30;;;;;;4997644;28;20198;-85
2021/04/18 10:32:00;;;;;;;9.47;6.00;;;9.90;88.90;;;;;;4997277;28;20314;-84
2021/04/18 10:34:27;;;;;;;10.47;7.40;;;10.00;85.80;;;;;;4995347;28;20252;-86
2021/04/18 10:36:53;;;;;;;9.43;6.77;;;10.20;83.60;;;;;;5001320;28;20234;-89
2021/04/18 10:39:19;;;;;;;9.17;6.47;;;10.20;83.90;;;;;;5001896;28;20251;-87
2021/04/18 10:41:46;;;;;;;8.03;5.93;;;10.40;85.60;;;;;;4999950;28;20647;-86
2021/04/18 10:44:18;;;;;;;6.90;5.13;;;10.70;82.70;;;;;;5004269;28;20212;-87
2021/04/18 10:47:17;;;;;;;8.13;5.97;;;11.40;81.30;;;;;;4999911;28;20189;-86
2021/04/18 10:49:46;;;;;;;8.63;5.27;;;11.20;79.00;;;;;;4994733;28;20202;-86
2021/04/18 10:52:12;;;;;;;8.23;5.40;;;11.30;78.20;;;;;;5002401;28;20288;-85
2021/04/18 10:54:38;;;;;;;6.03;4.90;;;11.40;74.90;;;;;;5011439;28;20223;-85
2021/04/18 10:57:05;;;;;;;5.97;5.10;;;11.50;72.90;;;;;;4997162;28;20259;-85
2021/04/18 10:59:31;;;;;;;8.57;5.03;;;11.50;73.50;;;;;;5001459;28;20219;-84
2021/04/18 11:01:56;;;;;;;6.20;4.30;;;11.50;74.60;;;;;;5001802;28;20231;-86
2021/04/18 11:04:22;;;;;;;6.93;4.67;;;11.50;70.70;;;;;;5010084;28;20235;-85
2021/04/18 11:06:48;;;;;;;7.27;4.70;;;11.80;70.10;;;;;;4998541;28;20212;-85
2021/04/18 11:09:15;;;;;;;5.63;4.43;;;12.00;70.40;;;;;;5001394;28;20192;-87
2021/04/18 11:11:42;;;;;;;7.10;4.97;;;12.00;70.20;;;;;;4991334;28;20224;-84
2021/04/18 11:14:09;;;;;;;10.70;5.00;;;12.20;70.90;;;;;;4996171;28;20227;-85
2021/04/18 11:16:35;;;;;;;6.97;4.83;;;12.00;68.90;;;;;;5001749;28;20251;-84
2021/04/18 11:19:01;;;;;;;9.47;5.00;;;12.40;69.90;;;;;;5001282;28;20254;-85
2021/04/18 11:21:27;;;;;;;6.70;5.10;;;13.00;68.20;;;;;;5000923;28;20220;-85
2021/04/18 11:23:54;;;;;;;6.80;5.10;;;12.80;65.90;;;;;;5009334;28;20180;-85
2021/04/18 11:26:20;;;;;;;6.57;4.60;;;12.80;69.80;;;;;;4999756;28;20191;-85
2021/04/18 11:28:49;;;;;;;6.37;4.13;;;13.10;64.60;;;;;;4993683;28;20231;-86
2021/04/18 11:31:15;;;;;;;5.30;4.10;;;13.00;61.20;;;;;;4984393;28;20224;-85
2021/04/18 11:33:41;;;;;;;4.43;4.00;;;13.50;57.50;;;;;;4987566;28;20234;-85
2021/04/18 11:36:08;;;;;;;4.87;4.03;;;13.50;59.40;;;;;;4982273;28;20228;-85
2021/04/18 11:38:33;;;;;;;6.63;4.37;;;13.50;58.50;;;;;;5001925;28;20250;-86
2021/04/18 11:40:59;;;;;;;5.77;3.67;;;13.70;56.10;;;;;;4996801;28;20677;-85
2021/04/18 11:43:25;;;;;;;6.00;3.93;;;13.90;55.20;;;;;;5012385;28;20282;-86
2021/04/18 11:45:51;;;;;;;6.87;3.97;;;14.30;53.50;;;;;;5010117;28;20261;-85
2021/04/18 11:48:17;;;;;;;4.23;2.93;;;14.70;53.60;;;;;;5006871;28;20331;-85
2021/04/18 11:50:44;;;;;;;7.93;4.37;;;;;;;;;;5004569;28;20205;-85
2021/04/18 11:53:10;;;;;;;4.97;3.07;;;13.90;53.60;;;;;;5016106;28;20303;-85
2021/04/18 11:55:37;;;;;;;6.13;3.80;;;13.50;53.50;;;;;;5006054;28;20241;-85
2021/04/18 11:58:06;;;;;;;5.67;3.73;;;13.20;54.00;;;;;;5002625;28;20236;-85
2021/04/18 12:00:33;;;;;;;7.80;4.17;;;13.30;55.80;;;;;;4995951;28;20203;-85
2021/04/18 12:03:00;;;;;;;5.70;3.67;;;13.60;55.20;;;;;;5024964;28;20202;-86
2021/04/18 12:05:26;;;;;;;4.83;3.80;;;;;;;;;;4998638;28;20195;-86
2021/04/18 12:07:53;;;;;;;3.90;3.50;;;;;;;;;;5008096;28;20199;-87
2021/04/18 12:10:18;;;;;;;6.50;4.10;;;13.40;54.30;;;;;;5009933;28;20251;-87
2021/04/18 12:12:44;;;;;;;4.63;3.77;;;13.90;53.60;;;;;;4999427;28;20325;-86
2021/04/18 12:15:13;;;;;;;4.97;3.63;;;14.00;51.80;;;;;;4997635;28;20248;-85
2021/04/18 12:17:39;;;;;;;5.03;3.13;;;14.80;50.00;;;;;;5009412;28;20800;-85
2021/04/18 12:20:09;;;;;;;3.53;3.20;;;14.90;50.10;;;;;;4998226;28;20231;-85
2021/04/18 12:22:36;;;;;;;5.03;3.57;;;14.90;50.60;;;;;;5001715;28;20226;-86
2021/04/18 12:25:07;;;;;;;5.00;3.60;;;14.70;50.30;;;;;;5017703;28;20226;-86
2021/04/18 12:27:33;;;;;;;3.97;3.40;;;;;;;;;;5001797;28;20359;-86
2021/04/18 12:29:59;;;;;;;4.63;3.80;;;;;;;;;;5024072;28;20289;-86
2021/04/18 12:32:25;;;;;;;4.30;3.70;;;16.30;45.30;;;;;;5021172;28;20195;-85
2021/04/18 12:34:51;;;;;;;3.93;3.07;;;15.90;45.70;;;;;;5003189;28;20311;-85
2021/04/18 12:37:52;;;;;;;6.30;3.83;;;15.20;46.00;;;;;;5007799;28;20292;-84
2021/04/18 12:40:21;;;;;;;6.50;3.80;;;16.50;46.20;;;;;;4932529;29;20217;-86
2021/04/18 12:42:47;;;;;;;3.97;2.80;;;16.50;46.20;;;;;;4922040;29;20227;-85
2021/04/18 12:45:13;;;;;;;4.27;3.60;;;17.60;42.90;;;;;;4925235;29;20224;-86
2021/04/18 12:47:38;;;;;;;4.90;3.77;;;17.60;43.50;;;;;;4941902;29;20207;-85
2021/04/18 12:50:06;;;;;;;4.33;3.60;;;15.60;46.30;;;;;;4927540;29;20210;-84
2021/04/18 12:52:32;;;;;;;5.13;3.93;;;14.70;49.50;;;;;;4927282;29;20213;-84
2021/04/18 12:54:58;;;;;;;7.63;4.33;;;;;;;;;;4944557;29;20272;-85
2021/04/18 12:57:25;;;;;;;6.17;3.90;;;14.40;49.20;;;;;;4927946;29;20227;-85
2021/04/18 12:59:55;;;;;;;5.30;3.80;;;13.80;51.90;;;;;;4925181;29;20199;-84
2021/04/18 13:02:29;;;;;;;6.33;3.90;;;13.70;51.80;;;;;;4942333;29;20785;-84
2021/04/18 13:05:00;;;;;;;5.10;3.87;;;;;;;;;;4923721;29;20218;-84